Time;durP1;ratioP1;P1;durP2;ratioP2;P2;SDS_P1;SDS_P2;PMS_P1;PMS_P2;Temp;Humidity;BMP_temperature;BMP_pressure;BME280_temperature;BME280_humidity;BME280_pressure;Samples;Min_cycle;Max_cycle;Signal;HPM_P1;HPM_P2
2023/04/11 00:00:10;;;;;;;19.08;3.75;;;;;;;;;;4948222;29;20054;-74
2023/04/11 00:02:39;;;;;;;16.27;4.28;;;;;;;;;;4930603;29;20073;-72
2023/04/11 00:05:06;;;;;;;21.45;4.60;;;;;;;;;;4941795;29;20097;-75
2023/04/11 00:07:33;;;;;;;24.70;4.35;;;;;;;;;;4935365;28;20054;-73
2023/04/11 00:09:59;;;;;;;25.80;4.80;;;;;;;;;;4941916;28;20084;-73
2023/04/11 00:12:26;;;;;;;20.23;4.47;;;;;;;;;;4944806;29;20434;-75
2023/04/11 00:14:52;;;;;;;19.90;4.03;;;;;;;;;;4944048;29;20051;-73
2023/04/11 00:17:19;;;;;;;20.08;4.70;;;;;;;;;;4943995;28;20047;-75
2023/04/11 00:19:47;;;;;;;22.50;4.47;;;;;;;;;;4943865;29;20047;-73
2023/04/11 00:22:16;;;;;;;29.40;5.15;;;;;;;;;;4940811;28;20055;-74
2023/04/11 00:24:43;;;;;;;22.30;4.20;;;;;;;;;;4943537;28;20055;-75
2023/04/11 00:27:10;;;;;;;24.85;4.55;;;;;;;;;;4944411;28;20576;-73
2023/04/11 00:29:36;;;;;;;20.65;4.25;;;;;;;;;;4943741;28;20122;-72
2023/04/11 00:32:03;;;;;;;20.40;4.03;;;;;;;;;;4942470;29;20067;-75
2023/04/11 00:34:29;;;;;;;20.98;4.80;;;;;;;;;;4941315;29;20048;-74
2023/04/11 00:36:55;;;;;;;17.80;4.18;;;;;;;;;;4939877;28;20055;-73
2023/04/11 00:39:25;;;;;;;22.35;4.60;;;;;;;;;;4942133;29;20063;-74
2023/04/11 00:41:51;;;;;;;21.00;4.78;;;;;;;;;;4938740;29;20071;-76
2023/04/11 00:44:17;;;;;;;20.30;4.80;;;;;;;;;;4937416;29;20173;-75
2023/04/11 00:46:44;;;;;;;22.50;4.35;;;;;;;;;;4942848;28;20051;-74
2023/04/11 00:49:12;;;;;;;23.98;4.10;;;;;;;;;;4934928;28;20238;-73
2023/04/11 00:51:38;;;;;;;24.30;4.88;;;;;;;;;;4939991;28;20114;-74
2023/04/11 00:54:09;;;;;;;23.15;4.30;;;;;;;;;;4937892;28;20516;-74
2023/04/11 00:56:35;;;;;;;22.48;4.35;;;;;;;;;;4943256;29;20047;-74
2023/04/11 00:59:02;;;;;;;21.33;4.25;;;;;;;;;;4944019;28;20500;-74
2023/04/11 01:01:29;;;;;;;16.02;3.97;;;;;;;;;;4940536;29;20044;-73
2023/04/11 01:03:55;;;;;;;24.25;5.10;;;;;;;;;;4940258;29;20074;-72
2023/04/11 01:06:22;;;;;;;30.20;4.55;;;;;;;;;;4929715;28;20052;-75
2023/04/11 01:08:48;;;;;;;25.38;4.55;;;;;;;;;;4922953;29;20083;-74
2023/04/11 01:11:18;;;;;;;25.23;4.65;;;;;;;;;;4940382;29;20054;-73
2023/04/11 01:13:45;;;;;;;22.45;3.63;;;;;;;;;;4935941;29;20086;-73
2023/04/11 01:16:11;;;;;;;27.33;5.03;;;;;;;;;;4948138;28;20054;-75
2023/04/11 01:18:38;;;;;;;21.95;3.97;;;;;;;;;;4947575;28;20051;-75
2023/04/11 01:21:05;;;;;;;22.15;3.78;;;;;;;;;;4946170;28;20487;-74
2023/04/11 01:23:33;;;;;;;21.88;4.20;;;;;;;;;;4928545;29;20043;-75
2023/04/11 01:25:59;;;;;;;28.33;4.47;;;;;;;;;;4942142;28;20106;-73
2023/04/11 01:28:26;;;;;;;23.38;3.28;;;;;;;;;;4945564;28;20412;-75
2023/04/11 01:30:52;;;;;;;17.88;3.83;;;;;;;;;;4945091;29;20050;-76
2023/04/11 01:33:18;;;;;;;23.95;4.40;;;;;;;;;;4929100;29;20065;-75
2023/04/11 01:35:45;;;;;;;30.15;3.72;;;;;;;;;;4936215;28;20084;-75
2023/04/11 01:38:11;;;;;;;18.20;3.72;;;;;;;;;;4934980;28;20039;-74
2023/04/11 01:40:38;;;;;;;17.20;3.78;;;;;;;;;;4945803;29;20071;-75
2023/04/11 01:43:07;;;;;;;18.17;3.75;;;;;;;;;;4941611;28;20055;-76
2023/04/11 01:45:33;;;;;;;18.75;3.25;;;;;;;;;;4940609;28;20090;-75
2023/04/11 01:48:04;;;;;;;24.00;3.58;;;;;;;;;;4938168;28;20142;-75
2023/04/11 01:50:31;;;;;;;22.95;3.20;;;;;;;;;;4942899;28;20142;-74
2023/04/11 01:52:57;;;;;;;22.70;3.95;;;;;;;;;;4949079;29;20055;-75
2023/04/11 01:55:24;;;;;;;20.00;3.50;;;;;;;;;;4946213;29;20246;-73
2023/04/11 01:57:50;;;;;;;24.50;3.58;;;;;;;;;;4939775;28;20134;-74
2023/04/11 02:00:16;;;;;;;25.83;4.60;;;;;;;;;;4942759;29;20055;-76
2023/04/11 02:02:43;;;;;;;22.65;3.50;;;;;;;;;;4949016;29;20043;-76
2023/04/11 02:05:10;;;;;;;23.58;3.63;;;;;;;;;;4947959;28;20039;-75
2023/04/11 02:07:36;;;;;;;24.25;4.82;;;;;;;;;;4947513;28;20478;-73
2023/04/11 02:10:03;;;;;;;25.63;3.65;;;;;;;;;;4945655;29;20055;-74
2023/04/11 02:12:29;;;;;;;24.58;4.00;;;;;;;;;;4948531;28;20051;-75
2023/04/11 02:14:56;;;;;;;27.48;3.92;;;;;;;;;;4947763;29;20290;-75
2023/04/11 02:17:25;;;;;;;25.65;3.65;;;;;;;;;;4941403;28;20044;-75
2023/04/11 02:19:52;;;;;;;22.17;3.33;;;;;;;;;;4940738;29;20134;-75
2023/04/11 02:22:18;;;;;;;24.83;3.88;;;;;;;;;;4948729;28;20510;-76
2023/04/11 02:24:46;;;;;;;30.13;4.15;;;;;;;;;;4945144;28;20051;-73
2023/04/11 02:27:12;;;;;;;22.92;4.15;;;;;;;;;;4948497;29;20126;-75
2023/04/11 02:29:39;;;;;;;20.48;3.25;;;;;;;;;;4946915;29;20061;-76
2023/04/11 02:32:05;;;;;;;25.17;3.13;;;;;;;;;;4934248;28;20057;-75
2023/04/11 02:34:31;;;;;;;30.55;4.10;;;;;;;;;;4929413;28;20047;-73
2023/04/11 02:36:58;;;;;;;24.67;3.55;;;;;;;;;;4940241;28;20047;-76
2023/04/11 02:39:25;;;;;;;28.88;4.65;;;;;;;;;;4928647;28;20362;-75
2023/04/11 02:41:51;;;;;;;21.38;4.20;;;;;;;;;;4943223;29;20393;-74
2023/04/11 02:44:18;;;;;;;30.30;4.07;;;;;;;;;;4948475;28;20150;-76
2023/04/11 02:46:44;;;;;;;27.90;3.85;;;;;;;;;;4941114;29;20063;-74
2023/04/11 02:49:10;;;;;;;21.52;3.35;;;;;;;;;;4930111;28;20493;-76
2023/04/11 02:51:37;;;;;;;17.50;2.70;;;;;;;;;;4945975;28;20070;-75
2023/04/11 02:54:04;;;;;;;14.45;3.05;;;;;;;;;;4946916;28;20054;-75
2023/04/11 02:56:32;;;;;;;20.90;2.97;;;;;;;;;;4924180;29;20138;-77
2023/04/11 02:58:59;;;;;;;25.23;3.13;;;;;;;;;;4939167;28;20099;-69
2023/04/11 03:01:25;;;;;;;30.63;3.13;;;;;;;;;;4914740;29;20308;-68
2023/04/11 03:03:51;;;;;;;20.65;3.53;;;;;;;;;;4930175;29;20052;-68
2023/04/11 03:06:18;;;;;;;23.50;3.53;;;;;;;;;;4935352;29;20056;-69
2023/04/11 03:08:45;;;;;;;27.23;4.43;;;;;;;;;;4936393;28;20051;-68
2023/04/11 03:11:12;;;;;;;22.15;4.05;;;;;;;;;;4933927;29;20047;-68
2023/04/11 03:13:38;;;;;;;18.35;3.05;;;;;;;;;;4932780;29;21091;-68
2023/04/11 03:16:05;;;;;;;23.05;3.83;;;;;;;;;;4944504;29;20066;-69
2023/04/11 03:18:32;;;;;;;28.60;3.55;;;;;;;;;;4947087;28;20109;-70
2023/04/11 03:20:58;;;;;;;28.30;3.83;;;;;;;;;;4941541;28;20058;-68
2023/04/11 03:23:24;;;;;;;21.90;3.10;;;;;;;;;;4947080;28;20058;-69
2023/04/11 03:25:52;;;;;;;31.05;3.40;;;;;;;;;;4945496;28;20614;-68
2023/04/11 03:28:18;;;;;;;27.80;3.60;;;;;;;;;;4929763;29;20043;-68
2023/04/11 03:30:45;;;;;;;22.23;3.03;;;;;;;;;;4945506;28;20468;-69
2023/04/11 03:33:11;;;;;;;25.27;3.40;;;;;;;;;;4946562;28;20125;-68
2023/04/11 03:35:37;;;;;;;21.80;2.97;;;;;;;;;;4943590;28;20049;-69
2023/04/11 03:38:04;;;;;;;22.77;3.70;;;;;;;;;;4942359;29;20819;-69
2023/04/11 03:40:30;;;;;;;23.98;4.40;;;;;;;;;;4925837;29;20134;-69
2023/04/11 03:43:00;;;;;;;21.67;3.63;;;;;;;;;;4938901;29;20051;-68
2023/04/11 03:45:30;;;;;;;15.63;2.38;;;;;;;;;;4936891;29;20058;-69
2023/04/11 03:47:56;;;;;;;18.88;3.05;;;;;;;;;;4942001;29;20079;-70
2023/04/11 03:50:22;;;;;;;23.42;3.25;;;;;;;;;;4938990;28;20094;-68
2023/04/11 03:52:49;;;;;;;19.30;2.42;;;;;;;;;;4943331;28;20078;-68
2023/04/11 03:55:15;;;;;;;19.13;2.45;;;;;;;;;;4941334;29;20568;-68
2023/04/11 03:57:42;;;;;;;15.60;2.53;;;;;;;;;;4945562;28;20558;-71
2023/04/11 04:00:09;;;;;;;14.77;2.78;;;;;;;;;;4945767;28;20055;-69
2023/04/11 04:02:36;;;;;;;16.52;3.15;;;;;;;;;;4933419;28;20130;-71
2023/04/11 04:05:02;;;;;;;14.75;2.35;;;;;;;;;;4939225;29;20058;-69
2023/04/11 04:07:30;;;;;;;18.88;2.38;;;;;;;;;;4938839;28;20059;-68
2023/04/11 04:09:57;;;;;;;14.63;2.60;;;;;;;;;;4945295;29;20428;-69
2023/04/11 04:12:24;;;;;;;17.83;4.32;;;;;;;;;;4939297;28;20059;-68
2023/04/11 04:14:51;;;;;;;11.77;1.92;;;;;;;;;;4931007;29;20058;-68
2023/04/11 04:17:17;;;;;;;10.32;1.73;;;;;;;;;;4944388;28;20057;-69
2023/04/11 04:19:44;;;;;;;12.82;2.50;;;;;;;;;;4933134;28;20067;-70
2023/04/11 04:22:11;;;;;;;8.32;1.83;;;;;;;;;;4945533;28;20452;-69
2023/04/11 04:24:38;;;;;;;13.32;2.13;;;;;;;;;;4935358;29;20052;-68
2023/04/11 04:27:07;;;;;;;6.43;1.10;;;;;;;;;;4937647;28;20102;-69
2023/04/11 04:29:37;;;;;;;10.27;2.03;;;;;;;;;;4945497;29;20094;-68
2023/04/11 04:32:09;;;;;;;13.30;1.83;;;;;;;;;;4929064;29;20110;-68
2023/04/11 04:34:39;;;;;;;6.78;1.77;;;;;;;;;;4936589;28;20058;-69
2023/04/11 04:37:05;;;;;;;16.63;1.83;;;;;;;;;;4936694;29;20048;-69
2023/04/11 04:39:32;;;;;;;12.20;1.95;;;;;;;;;;4934432;28;20131;-67
2023/04/11 04:42:00;;;;;;;13.13;1.65;;;;;;;;;;4942823;28;20054;-69
2023/04/11 04:44:26;;;;;;;13.50;1.73;;;;;;;;;;4938935;28;20472;-69
2023/04/11 04:46:53;;;;;;;10.27;1.40;;;;;;;;;;4925185;29;20055;-68
2023/04/11 04:49:20;;;;;;;14.60;1.77;;;;;;;;;;4935350;29;20052;-68
2023/04/11 04:51:46;;;;;;;11.27;2.35;;;;;;;;;;4940301;29;20059;-70
2023/04/11 04:54:13;;;;;;;9.57;1.70;;;;;;;;;;4944791;29;20416;-68
2023/04/11 04:56:40;;;;;;;9.27;1.48;;;;;;;;;;4938811;29;20049;-69
2023/04/11 04:59:07;;;;;;;7.63;1.50;;;;;;;;;;4939497;29;20046;-68
2023/04/11 05:01:34;;;;;;;11.15;1.60;;;;;;;;;;4942260;28;20090;-69
2023/04/11 05:04:00;;;;;;;9.30;1.42;;;;;;;;;;4942698;28;20051;-70
2023/04/11 05:06:28;;;;;;;11.38;2.20;;;;;;;;;;4937258;28;20428;-69
2023/04/11 05:08:55;;;;;;;13.70;2.00;;;;;;;;;;4938259;29;20271;-69
2023/04/11 05:11:22;;;;;;;12.02;1.55;;;;;;;;;;4940057;29;20491;-69
2023/04/11 05:13:49;;;;;;;10.82;1.77;;;;;;;;;;4932402;28;20062;-68
2023/04/11 05:16:16;;;;;;;9.95;2.50;;;;;;;;;;4944211;28;20135;-68
2023/04/11 05:18:43;;;;;;;7.97;1.63;;;;;;;;;;4926875;29;20048;-68
2023/04/11 05:21:10;;;;;;;10.38;2.63;;;;;;;;;;4941005;28;20051;-69
2023/04/11 05:23:36;;;;;;;8.50;1.27;;;;;;;;;;4940236;28;20063;-70
2023/04/11 05:26:03;;;;;;;6.38;0.93;;;;;;;;;;4944036;28;20062;-68
2023/04/11 05:28:30;;;;;;;9.80;1.13;;;;;;;;;;4930523;29;20463;-68
2023/04/11 05:30:56;;;;;;;18.77;1.92;;;;;;;;;;4941312;29;20153;-69
2023/04/11 05:33:23;;;;;;;8.32;1.42;;;;;;;;;;4929244;29;20383;-68
2023/04/11 05:35:50;;;;;;;10.77;1.70;;;;;;;;;;4942972;29;20710;-68
2023/04/11 05:38:16;;;;;;;9.27;1.80;;;;;;;;;;4948587;28;20070;-69
2023/04/11 05:40:43;;;;;;;11.23;1.65;;;;;;;;;;4948459;28;20047;-69
2023/04/11 05:43:13;;;;;;;8.35;1.50;;;;;;;;;;4940419;28;20119;-69
2023/04/11 05:45:40;;;;;;;8.82;1.35;;;;;;;;;;4947721;28;20048;-69
2023/04/11 05:48:07;;;;;;;12.43;1.75;;;;;;;;;;4948290;28;20043;-68
2023/04/11 05:50:34;;;;;;;7.20;1.60;;;;;;;;;;4937319;28;20103;-69
2023/04/11 05:53:01;;;;;;;9.35;1.60;;;;;;;;;;4940028;29;20051;-71
2023/04/11 05:55:28;;;;;;;12.48;1.80;;;;;;;;;;4949298;29;20526;-68
2023/04/11 05:57:54;;;;;;;12.27;1.77;;;;;;;;;;4949244;28;20074;-68
2023/04/11 06:00:22;;;;;;;14.43;1.40;;;;;;;;;;4949252;29;20047;-70
2023/04/11 06:02:49;;;;;;;5.13;1.20;;;;;;;;;;4949899;28;20086;-68
2023/04/11 06:05:16;;;;;;;6.32;1.20;;;;;;;;;;4933008;28;20582;-68
2023/04/11 06:07:44;;;;;;;11.55;1.90;;;;;;;;;;4949646;28;20069;-68
2023/04/11 06:10:10;;;;;;;10.52;1.65;;;;;;;;;;4949280;28;20134;-69
2023/04/11 06:12:36;;;;;;;8.68;1.75;;;;;;;;;;4951015;28;20051;-69
2023/04/11 06:15:03;;;;;;;10.57;1.70;;;;;;;;;;4951425;29;20055;-70
2023/04/11 06:17:29;;;;;;;7.30;1.10;;;;;;;;;;4954321;29;20035;-71
2023/04/11 06:19:56;;;;;;;12.43;1.38;;;;;;;;;;4965815;29;20057;-70
2023/04/11 06:22:22;;;;;;;7.63;1.38;;;;;;;;;;4970339;28;20422;-70
2023/04/11 06:24:49;;;;;;;7.90;1.23;;;;;;;;;;4963242;29;20054;-67
2023/04/11 06:27:15;;;;;;;11.40;1.40;;;;;;;;;;4942210;28;20058;-67
2023/04/11 06:29:42;;;;;;;7.57;1.23;;;;;;;;;;4932573;29;20408;-68
2023/04/11 06:32:13;;;;;;;8.05;1.70;;;;;;;;;;4944599;28;20064;-69
2023/04/11 06:34:39;;;;;;;8.65;1.58;;;;;;;;;;4946647;29;20314;-69
2023/04/11 06:37:06;;;;;;;8.68;1.40;;;;;;;;;;4930782;28;20504;-69
2023/04/11 06:39:33;;;;;;;10.88;1.70;;;;;;;;;;4939987;28;20135;-66
2023/04/11 06:42:00;;;;;;;13.25;1.77;;;;;;;;;;4946681;28;20047;-66
2023/04/11 06:44:26;;;;;;;7.15;1.25;;;;;;;;;;4931433;29;20046;-68
2023/04/11 06:46:53;;;;;;;6.18;1.60;;;;;;;;;;4930708;29;20055;-67
2023/04/11 06:49:20;;;;;;;7.65;1.60;;;;;;;;;;4948040;29;20078;-67
2023/04/11 06:51:48;;;;;;;9.18;1.77;;;;;;;;;;4930931;29;20051;-67
2023/04/11 06:54:15;;;;;;;9.15;1.60;;;;;;;;;;4947367;28;21012;-67
2023/04/11 06:56:43;;;;;;;10.68;1.50;;;;;;;;;;4933275;28;20138;-68
2023/04/11 06:59:09;;;;;;;8.70;1.60;;;;;;;;;;4943064;28;20049;-68
2023/04/11 07:01:36;;;;;;;7.50;1.20;;;;;;;;;;4930352;28;20137;-68
2023/04/11 07:04:03;;;;;;;13.60;1.60;;;;;;;;;;4925470;29;20095;-67
2023/04/11 07:06:30;;;;;;;8.00;1.50;;;;;;;;;;4942020;28;20055;-68
2023/04/11 07:08:57;;;;;;;11.52;2.00;;;;;;;;;;4942612;28;20096;-67
2023/04/11 07:11:23;;;;;;;7.32;1.50;;;;;;;;;;4936717;28;20060;-67
2023/04/11 07:13:49;;;;;;;10.10;1.75;;;;;;;;;;4931518;28;20155;-67
2023/04/11 07:16:16;;;;;;;9.68;1.75;;;;;;;;;;4943038;28;20082;-67
2023/04/11 07:18:42;;;;;;;8.95;1.65;;;;;;;;;;4946334;28;20063;-68
2023/04/11 07:21:12;;;;;;;8.93;1.58;;;;;;;;;;4939062;29;20643;-68
2023/04/11 07:23:39;;;;;;;13.02;1.95;;;;;;;;;;4936285;28;20094;-70
2023/04/11 07:26:09;;;;;;;12.93;1.90;;;;;;;;;;4941250;29;20304;-70
2023/04/11 07:28:39;;;;;;;13.25;2.08;;;;;;;;;;4944018;28;20059;-68
2023/04/11 07:31:09;;;;;;;10.63;1.65;;;;;;;;;;4926394;29;20055;-69
2023/04/11 07:33:36;;;;;;;10.63;1.85;;;;;;;;;;4943439;28;20504;-68
2023/04/11 07:36:03;;;;;;;9.55;1.92;;;;;;;;;;4939164;28;20048;-68
2023/04/11 07:38:30;;;;;;;10.48;2.42;;;;;;;;;;4943322;28;20052;-68
2023/04/11 07:40:57;;;;;;;10.48;1.48;;;;;;;;;;4941123;29;20095;-69
2023/04/11 07:43:24;;;;;;;11.35;2.08;;;;;;;;;;4941941;28;20090;-69
2023/04/11 07:45:52;;;;;;;13.45;1.92;;;;;;;;;;4939221;28;20052;-69
2023/04/11 07:48:20;;;;;;;10.15;2.05;;;;;;;;;;4944806;28;20524;-70
2023/04/11 07:50:46;;;;;;;11.02;1.75;;;;;;;;;;4937300;28;20059;-69
2023/04/11 07:53:13;;;;;;;10.93;1.75;;;;;;;;;;4939821;29;20069;-68
2023/04/11 07:55:39;;;;;;;11.68;1.90;;;;;;;;;;4945080;28;20081;-69
2023/04/11 07:58:06;;;;;;;10.77;1.83;;;;;;;;;;4942688;29;20055;-68
2023/04/11 08:00:32;;;;;;;11.23;1.48;;;;;;;;;;4926180;28;20047;-70
2023/04/11 08:03:03;;;;;;;9.43;1.80;;;;;;;;;;4933006;28;20051;-69
2023/04/11 08:05:30;;;;;;;11.68;1.48;;;;;;;;;;4943638;28;20090;-69
2023/04/11 08:07:56;;;;;;;9.18;1.85;;;;;;;;;;4935047;28;20182;-69
2023/04/11 08:10:23;;;;;;;13.43;2.58;;;;;;;;;;4936283;28;20293;-69
2023/04/11 08:12:49;;;;;;;9.43;1.45;;;;;;;;;;4948064;28;20054;-70
2023/04/11 08:15:16;;;;;;;8.30;1.45;;;;;;;;;;4944630;28;20055;-69
2023/04/11 08:17:44;;;;;;;8.88;1.55;;;;;;;;;;4943620;28;20118;-69
2023/04/11 08:20:11;;;;;;;11.53;1.80;;;;;;;;;;4934317;28;20039;-68
2023/04/11 08:22:38;;;;;;;13.23;1.85;;;;;;;;;;4928136;29;20082;-69
2023/04/11 08:25:06;;;;;;;11.30;1.92;;;;;;;;;;4938910;29;20063;-70
2023/04/11 08:27:32;;;;;;;8.80;2.03;;;;;;;;;;4936072;28;20059;-70
2023/04/11 08:29:59;;;;;;;9.35;1.70;;;;;;;;;;4936641;28;20047;-69
2023/04/11 08:32:25;;;;;;;10.18;2.10;;;;;;;;;;4935125;28;20055;-69
2023/04/11 08:34:52;;;;;;;12.73;1.58;;;;;;;;;;4937599;28;20398;-69
2023/04/11 08:37:18;;;;;;;12.20;1.73;;;;;;;;;;4941897;28;20154;-69
2023/04/11 08:39:44;;;;;;;8.45;1.80;;;;;;;;;;4937804;29;20044;-69
2023/04/11 08:42:22;;;;;;;8.52;1.52;;;;;;;;;;4944099;28;20130;-69
2023/04/11 08:44:56;;;;;;;7.00;1.63;;;;;;;;;;4936173;29;20167;-68
2023/04/11 08:47:22;;;;;;;5.93;1.40;;;;;;;;;;4943250;28;20055;-70
2023/04/11 08:49:51;;;;;;;11.77;1.98;;;;;;;;;;4926935;29;20126;-69
2023/04/11 08:52:21;;;;;;;10.55;1.88;;;;;;;;;;4927916;29;20053;-69
2023/04/11 08:54:47;;;;;;;5.70;1.40;;;;;;;;;;4942812;28;20054;-69
2023/04/11 08:57:27;;;;;;;14.32;1.45;;;;;;;;;;4940460;28;20429;-68
2023/04/11 08:59:54;;;;;;;9.07;1.88;;;;;;;;;;4925186;29;20623;-69
2023/04/11 09:02:20;;;;;;;8.50;2.17;;;;;;;;;;4940082;28;20043;-69
2023/04/11 09:04:47;;;;;;;7.45;1.95;;;;;;;;;;4937338;28;20085;-70
2023/04/11 09:07:15;;;;;;;6.47;1.13;;;;;;;;;;4939251;28;20043;-69
2023/04/11 09:09:42;;;;;;;5.00;1.10;;;;;;;;;;4932120;29;20059;-70
2023/04/11 09:12:08;;;;;;;7.00;1.25;;;;;;;;;;4923851;29;20564;-69
2023/04/11 09:14:35;;;;;;;8.07;1.17;;;;;;;;;;4939293;29;20062;-70
2023/04/11 09:17:12;;;;;;;7.80;1.60;;;;;;;;;;4943576;28;20047;-70
2023/04/11 09:19:39;;;;;;;13.68;2.45;;;;;;;;;;4943054;28;20323;-69
2023/04/11 09:22:06;;;;;;;7.15;1.23;;;;;;;;;;4944731;28;20047;-69
2023/04/11 09:24:33;;;;;;;11.00;1.67;;;;;;;;;;4920895;29;20491;-71
2023/04/11 09:27:15;;;;;;;9.93;1.58;;;;;;;;;;4932211;28;20062;-71
2023/04/11 09:29:44;;;;;;;5.20;1.20;;;;;;;;;;4940956;28;20059;-69
2023/04/11 09:32:10;;;;;;;;;;;;;;;;;;4944696;28;20061;-71
2023/04/11 09:34:36;;;;;;;9.43;1.60;;;;;;;;;;4941591;28;19930;-71
2023/04/11 09:37:05;;;;;;;6.82;1.42;;;;;;;;;;4921471;29;20087;-70
2023/04/11 09:39:32;;;;;;;8.60;2.00;;;;;;;;;;4940616;29;20052;-69
2023/04/11 09:41:58;;;;;;;11.27;1.75;;;;;;;;;;4935149;28;20102;-70
2023/04/11 09:44:37;;;;;;;7.07;1.38;;;;;;;;;;4921362;29;20054;-69
2023/04/11 09:47:03;;;;;;;13.60;1.63;;;;;;;;;;4939967;28;20054;-68
2023/04/11 09:49:31;;;;;;;6.78;1.58;;;;;;;;;;4938916;29;20066;-66
2023/04/11 09:51:58;;;;;;;7.03;1.40;;;;;;;;;;4935665;28;20568;-70
2023/04/11 09:54:25;;;;;;;11.30;2.35;;;;;;;;;;4931053;29;20074;-69
2023/04/11 09:56:51;;;;;;;16.60;2.28;;;;;;;;;;4935772;28;20155;-70
2023/04/11 09:59:19;;;;;;;11.80;1.90;;;;;;;;;;4940492;28;20074;-70
2023/04/11 10:01:45;;;;;;;10.50;1.83;;;;;;;;;;4944644;28;20499;-68
2023/04/11 10:04:13;;;;;;;9.25;1.50;;;;;;;;;;4926273;29;20531;-68
2023/04/11 10:06:44;;;;;;;8.68;1.50;;;;;;;;;;4933758;28;20084;-68
2023/04/11 10:09:13;;;;;;;7.05;1.42;;;;;;;;;;4931358;29;20052;-68
2023/04/11 10:11:43;;;;;;;9.00;1.38;;;;;;;;;;4938517;28;20322;-71
2023/04/11 10:14:28;;;;;;;8.15;1.40;;;;;;;;;;4925480;29;20463;-67
2023/04/11 10:17:14;;;;;;;7.53;1.38;;;;;;;;;;4937512;28;20058;-67
2023/04/11 10:19:44;;;;;;;10.65;1.50;;;;;;;;;;4943030;29;20043;-68
2023/04/11 10:22:30;;;;;;;5.70;1.40;;;;;;;;;;4940639;28;20057;-71
2023/04/11 10:25:15;;;;;;;7.25;1.80;;;;;;;;;;4939201;28;20310;-69
2023/04/11 10:27:49;;;;;;;7.65;1.27;;;;;;;;;;4944105;28;20051;-69
2023/04/11 10:30:16;;;;;;;5.75;1.20;;;;;;;;;;4929184;29;20094;-70
2023/04/11 10:33:05;;;;;;;6.03;1.10;;;;;;;;;;4945157;28;20133;-69
2023/04/11 10:35:32;;;;;;;6.38;1.40;;;;;;;;;;4934547;29;20520;-69
2023/04/11 10:37:58;;;;;;;6.63;1.58;;;;;;;;;;4938336;28;20090;-68
2023/04/11 10:40:25;;;;;;;6.88;1.10;;;;;;;;;;4945595;28;20051;-67
2023/04/11 10:42:51;;;;;;;7.78;1.35;;;;;;;;;;4933369;28;20407;-67
2023/04/11 10:45:25;;;;;;;5.10;1.25;;;;;;;;;;4913174;29;20051;-67
2023/04/11 10:47:55;;;;;;;7.50;1.23;;;;;;;;;;4951175;28;20051;-70
2023/04/11 10:50:27;;;;;;;6.05;1.30;;;;;;;;;;4935383;28;20139;-71
2023/04/11 10:52:58;;;;;;;6.53;1.10;;;;;;;;;;4933558;28;20111;-68
2023/04/11 10:55:28;;;;;;;6.22;1.60;;;;;;;;;;4924618;29;20225;-68
2023/04/11 10:58:06;;;;;;;8.32;1.20;;;;;;;;;;4940924;28;20052;-67
2023/04/11 11:00:46;;;;;;;4.28;1.10;;;;;;;;;;4928309;28;20536;-67
2023/04/11 11:03:14;;;;;;;5.75;1.10;;;;;;;;;;4943820;28;20081;-67
2023/04/11 11:05:41;;;;;;;0.93;0.50;;;;;;;;;;4936482;28;20601;-68
2023/04/11 11:08:07;;;;;;;4.32;1.10;;;;;;;;;;4943468;28;20166;-68
2023/04/11 11:10:35;;;;;;;11.80;1.50;;;;;;;;;;4943835;28;20548;-67
2023/04/11 11:13:03;;;;;;;5.03;0.90;;;;;;;;;;4944748;28;20118;-68
2023/04/11 11:15:30;;;;;;;6.25;1.23;;;;;;;;;;4938051;29;20166;-67
2023/04/11 11:17:57;;;;;;;4.28;1.05;;;;;;;;;;4941093;28;20055;-68
2023/04/11 11:20:23;;;;;;;4.18;1.30;;;;;;;;;;4933161;28;20051;-69
2023/04/11 11:23:03;;;;;;;7.88;1.30;;;;;;;;;;4941865;28;20416;-68
2023/04/11 11:25:30;;;;;;;8.20;1.40;;;;;;;;;;4932597;28;20135;-69
2023/04/11 11:27:57;;;;;;;4.07;1.10;;;;;;;;;;4942186;28;20444;-68
2023/04/11 11:30:23;;;;;;;5.43;1.20;;;;;;;;;;4934680;28;20051;-69
2023/04/11 11:32:50;;;;;;;5.95;1.08;;;;;;;;;;4943904;28;20061;-67
2023/04/11 11:35:16;;;;;;;11.77;1.67;;;;;;;;;;4925978;28;20055;-67
2023/04/11 11:37:43;;;;;;;8.43;1.55;;;;;;;;;;4932500;28;20052;-68
2023/04/11 11:40:13;;;;;;;6.22;1.15;;;;;;;;;;4940611;28;20045;-68
2023/04/11 11:42:40;;;;;;;6.78;1.10;;;;;;;;;;4936038;28;20767;-67
2023/04/11 11:45:16;;;;;;;6.60;1.25;;;;;;;;;;4938378;28;20146;-70
2023/04/11 11:47:43;;;;;;;10.05;1.25;;;;;;;;;;4934622;28;20051;-67
2023/04/11 11:50:10;;;;;;;7.05;1.40;;;;;;;;;;4926506;29;20484;-68
2023/04/11 11:52:39;;;;;;;5.22;1.20;;;;;;;;;;4940700;28;20539;-68
2023/04/11 11:55:05;;;;;;;;;;;;;;;;;;4934775;28;20143;-68
2023/04/11 11:57:44;;;;;;;9.50;1.65;;;;;;;;;;4930903;28;20456;-67
2023/04/11 12:00:11;;;;;;;9.02;1.30;;;;;;;;;;4932263;29;20066;-68
2023/04/11 12:02:38;;;;;;;5.55;1.30;;;;;;;;;;4941510;28;20055;-68
2023/04/11 12:05:05;;;;;;;5.60;1.20;;;;;;;;;;4943237;28;20047;-69
2023/04/11 12:07:35;;;;;;;8.02;1.38;;;;;;;;;;4943637;28;20523;-67
2023/04/11 12:10:05;;;;;;;5.72;1.05;;;;;;;;;;4942695;28;20054;-69
2023/04/11 12:12:35;;;;;;;7.75;1.20;;;;;;;;;;4944184;28;20860;-68
2023/04/11 12:15:02;;;;;;;6.28;1.10;;;;;;;;;;4945228;28;20113;-68
2023/04/11 12:17:35;;;;;;;5.75;0.98;;;;;;;;;;4925795;28;20051;-69
2023/04/11 12:20:06;;;;;;;5.90;1.40;;;;;;;;;;4936057;28;20055;-67
2023/04/11 12:22:34;;;;;;;16.25;1.60;;;;;;;;;;4942056;28;20055;-67
2023/04/11 12:25:07;;;;;;;6.95;1.30;;;;;;;;;;4942146;29;20050;-68
2023/04/11 12:27:33;;;;;;;7.18;1.42;;;;;;;;;;4941341;28;20055;-68
2023/04/11 12:30:00;;;;;;;5.95;0.95;;;;;;;;;;4939133;29;20060;-69
2023/04/11 12:32:27;;;;;;;7.25;1.27;;;;;;;;;;4939452;28;20065;-67
2023/04/11 12:34:53;;;;;;;4.93;0.98;;;;;;;;;;4941375;28;20063;-68
2023/04/11 12:37:20;;;;;;;6.57;1.17;;;;;;;;;;4941529;28;20046;-69
2023/04/11 12:39:46;;;;;;;6.05;1.10;;;;;;;;;;4942072;28;20059;-67
2023/04/11 12:42:13;;;;;;;4.90;1.20;;;;;;;;;;4940353;28;20043;-68
2023/04/11 12:44:43;;;;;;;6.60;1.05;;;;;;;;;;4946436;28;20054;-68
2023/04/11 12:47:10;;;;;;;3.90;0.98;;;;;;;;;;4922539;29;20486;-67
2023/04/11 12:49:36;;;;;;;9.23;1.63;;;;;;;;;;4941595;28;20550;-70
2023/04/11 12:52:02;;;;;;;5.75;1.20;;;;;;;;;;4931001;29;20077;-67
2023/04/11 12:54:29;;;;;;;6.30;1.17;;;;;;;;;;4939887;28;20146;-68
2023/04/11 12:56:57;;;;;;;5.60;0.90;;;;;;;;;;4924203;29;20571;-69
2023/04/11 12:59:26;;;;;;;5.68;1.13;;;;;;;;;;4941137;28;20059;-68
2023/04/11 13:01:53;;;;;;;5.75;1.10;;;;;;;;;;4939164;29;20082;-69
2023/04/11 13:04:20;;;;;;;11.23;1.75;;;;;;;;;;4944130;28;20071;-69
2023/04/11 13:06:46;;;;;;;5.22;0.88;;;;;;;;;;4937836;28;20047;-68
2023/04/11 13:09:13;;;;;;;4.45;1.00;;;;;;;;;;4930228;28;20397;-68
2023/04/11 13:11:40;;;;;;;8.25;1.20;;;;;;;;;;4938824;28;20059;-69
2023/04/11 13:14:07;;;;;;;8.10;2.33;;;;;;;;;;4933412;28;20062;-68
2023/04/11 13:16:33;;;;;;;5.65;1.10;;;;;;;;;;4936344;29;20066;-68
2023/04/11 13:18:59;;;;;;;5.30;1.20;;;;;;;;;;4940850;28;20087;-68
2023/04/11 13:21:26;;;;;;;7.65;1.40;;;;;;;;;;4941038;28;20042;-68
2023/04/11 13:23:54;;;;;;;4.88;1.20;;;;;;;;;;4940284;28;20548;-67
2023/04/11 13:26:21;;;;;;;6.13;1.40;;;;;;;;;;4941454;29;20368;-68
2023/04/11 13:28:47;;;;;;;10.52;1.63;;;;;;;;;;4940943;28;20057;-68
2023/04/11 13:31:13;;;;;;;8.60;1.60;;;;;;;;;;4941104;28;20047;-68
2023/04/11 13:33:41;;;;;;;4.10;1.00;;;;;;;;;;4938808;28;20058;-69
2023/04/11 13:36:07;;;;;;;8.38;1.77;;;;;;;;;;4924404;29;20051;-70
2023/04/11 13:38:34;;;;;;;6.18;1.30;;;;;;;;;;4938909;28;20047;-67
2023/04/11 13:41:00;;;;;;;4.38;1.10;;;;;;;;;;4923735;29;20067;-68
2023/04/11 13:43:27;;;;;;;7.78;1.60;;;;;;;;;;4939587;28;20547;-67
2023/04/11 13:45:53;;;;;;;5.57;0.90;;;;;;;;;;4941708;28;20051;-69
2023/04/11 13:48:19;;;;;;;5.30;1.48;;;;;;;;;;4944524;28;20051;-69
2023/04/11 13:50:46;;;;;;;7.53;1.42;;;;;;;;;;4939057;29;20491;-68
2023/04/11 13:53:12;;;;;;;6.05;1.02;;;;;;;;;;4944438;28;20051;-68
2023/04/11 13:55:38;;;;;;;6.28;1.23;;;;;;;;;;4920263;28;20083;-67
2023/04/11 13:58:05;;;;;;;5.07;1.35;;;;;;;;;;4926719;28;20057;-68
2023/04/11 14:00:34;;;;;;;3.95;1.20;;;;;;;;;;4937636;28;20088;-68
2023/04/11 14:03:01;;;;;;;8.20;1.05;;;;;;;;;;4942893;28;20057;-69
2023/04/11 14:05:30;;;;;;;7.50;1.00;;;;;;;;;;4945176;28;20054;-67
2023/04/11 14:07:56;;;;;;;5.43;1.20;;;;;;;;;;4944290;29;20878;-68
2023/04/11 14:10:23;;;;;;;5.90;1.52;;;;;;;;;;4943800;28;20058;-69
2023/04/11 14:12:49;;;;;;;4.05;0.85;;;;;;;;;;4943140;29;20199;-67
2023/04/11 14:15:16;;;;;;;6.93;1.25;;;;;;;;;;4942411;28;20066;-67
2023/04/11 14:17:45;;;;;;;2.90;0.70;;;;;;;;;;4952422;28;20054;-68
2023/04/11 14:20:12;;;;;;;;;;;;;;;;;;4928860;29;20139;-69
2023/04/11 14:22:39;;;;;;;4.32;0.93;;;;;;;;;;4940573;28;20021;-69
2023/04/11 14:25:08;;;;;;;6.05;0.98;;;;;;;;;;4938335;28;20050;-69
2023/04/11 14:27:35;;;;;;;5.47;1.00;;;;;;;;;;4928427;29;20334;-69
2023/04/11 14:30:01;;;;;;;3.47;0.70;;;;;;;;;;4940935;28;20052;-70
2023/04/11 14:32:28;;;;;;;5.20;1.10;;;;;;;;;;4939059;29;20051;-67
2023/04/11 14:34:54;;;;;;;3.20;0.68;;;;;;;;;;4940428;28;20055;-67
2023/04/11 14:37:21;;;;;;;3.83;1.23;;;;;;;;;;4939238;29;20399;-69
2023/04/11 14:39:47;;;;;;;5.35;0.90;;;;;;;;;;4944043;28;20486;-68